AirNav   Air Wisconsin pilot careers
 
 697 users online  

0MU6 Bradbury-Rolf Memorial Heliport
Higginsville, Missouri, USA

GOING TO HIGGINSVILLE?


FAA INFORMATION EFFECTIVE 06 DECEMBER 2018

Location

FAA Identifier: 0MU6
Lat/Long: 39-04-25.4400N / 093-44-09.2200W
39-04.424000N / 093-44.153667W
39.0737333 / -93.7358944
(estimated)
Elevation: 815 ft. / 248 m (estimated)
Variation: 04E (1995)
Time zone: UTC -6 (UTC -5 during Daylight Saving Time)
Zip code: 64037

Heliport Operations

Heliport use: Private use, MEDICAL
Activation date: 09/1996
Control tower: no
ARTCC: KANSAS CITY CENTER
FSS: COLUMBIA FLIGHT SERVICE STATION
Attendance: UNATNDD
Wind indicator: yes
Segmented circle: no
Lights: FOR FLOOD LGTS CALL (660) 584-3832.

Heliport Communications

WX AWOS-3 at RCM (18 nm S): 119.575 (660-422-7010)

Nearby radio navigation aids

VOR radial/distance  VOR name  Freq  Var
ANXr087/18.3NAPOLEON VORTAC114.0007E
BQSr166/34.0BRAYMER VOR/DME111.2003E

 
NDB name  Hdg/Dist  Freq  Var  ID
MARSHALL271/25.237103EPUR .--. ..- .-.
SEDALIA307/34.328103EDMO -.. -- ---

Heliport Services

Runway Information

Helipad H1

Dimensions: 60 x 60 ft. / 18 x 18 m
Surface: concrete
Runway edge lights: FLOOD LGTS ON EACH CORNER.
Runway edge markings: HELIPAD HAS 'H'.
Latitude: 39-04.424000N
Longitude: 093-44.153667W
Elevation: 815.0 ft.
Traffic pattern: leftleft

Heliport Ownership and Management from official FAA records

Ownership: Privately-owned
Owner: FAMILY PRACTICE ASSOC
1200 W 22ND
HIGGINSVILLE, MO 64037
Phone (660) 584-7751
Manager: ROD KIRCHHOFF
850 WILLOW CREEK LN
HIGGINSVILLE, MO 64037
Phone 660-584-7623

Additional Remarks

A52-H1 30-40 FT PLINES MKD E & S OF HELIPAD.

Instrument Procedures

There are no published instrument procedures at 0MU6.

Some nearby airports with instrument procedures:

KHIG - Higginsville Industrial Municipal Airport (3 nm E)
KRCM - Skyhaven Airport (18 nm S)
KSZL - Whiteman Air Force Base (22 nm SE)
3GV - East Kansas City Airport (23 nm W)
KMHL - Marshall Memorial Municipal Airport (25 nm E)
 
Loc | Ops | Rwys | IFR | FBO | Links
Com | Nav | Svcs | Stats | Notes

Kansas City Aviation Department
 
Area around 0MU6 (Bradbury-Rolf Memorial Heliport)
 
Road maps at: MapQuest Bing Google
 
Aerial photo
No photo
 
Sectional chart

 
Airport distance calculator
Flying to Bradbury-Rolf Memorial Heliport? Find the distance to fly.

From to 0MU6

Sunrise and sunset
Times for 11-Dec-2018
 Local
(UTC-6)
 Zulu
(UTC)
Morning civil twilight06:5512:55
Sunrise07:2513:25
Sunset16:5122:51
Evening civil twilight17:2123:21

Current date and time
Zulu (UTC)  12-Dec-2018 04:38:18
Local (UTC-6)  11-Dec-2018 22:38:18
 
METAR
KRCM 
18nm S 
120415Z AUTO 18010KT 10SM CLR 08/00 A2986 RMK AO2
KSZL 
23nm SE 
120356Z 21016KT 10SM OVC170 09/00 A2983 RMK AO2A SLP107 WND DATA ESTMD T00860003 $
KMHL 
25nm E 
120415Z AUTO 00000KT 10SM CLR 08/00 A2986 RMK AO2
KLXT 
30nm W 
120353Z AUTO 24012KT 10SM CLR 09/02 A2986 RMK AO2 SLP114 T00890017
KGPH 
31nm NW 
120415Z AUTO 26008KT 10SM CLR 09/01 A2985 RMK AO2
KDMO 
34nm SE 
120353Z AUTO 20016G25KT 10SM CLR 09/00 A2989 RMK AO2 PK WND 20027/0341 SLP125 T00940000
TAF
KSZL 
23nm SE 
120300Z 1203/1309 20012KT 9999 OVC160 WS020/22040KT QNH2983INS BECMG 1206/1207 24012KT 9999 SCT018 BKN035 520102 QNH2984INS BECMG 1210/1211 27009KT 9999 SKC QNH2985INS BECMG 1220/1221 18006KT 9999 SKC QNH2983INS BECMG 1306/1307 17006KT 9999 OVC008 QNH2982INS TX09/1220Z TNM02/1213Z
NOTAMs
Click for the latest NOTAMs
NOTAMs are issued by the DoD/FAA and will open in a separate window not controlled by AirNav.

 

 
 

Would you like to see your business listed on this page?

 If your business provides an interesting product or service to pilots, flight crews, aircraft, or users of the Bradbury-Rolf Memorial Heliport, you should consider listing it here.  To start the listing process, click on the button below
 
Add a business
 

Other Pages about Bradbury-Rolf Memorial Heliport

Update a link
 
Copyright © AirNav, LLC. All rights reserved. Privacy Policy  Contact